Time;durP1;ratioP1;P1;durP2;ratioP2;P2;SDS_P1;SDS_P2;PMS_P1;PMS_P2;Temp;Humidity;BMP_temperature;BMP_pressure;BME280_temperature;BME280_humidity;BME280_pressure;Samples;Min_cycle;Max_cycle;Signal;HPM_P1;HPM_P2
2022/10/18 03:00:53;;;;;;;1.00;0.90;;;17.90;78.40;;;;;;6074068;23;20380;31
2022/10/18 03:03:20;;;;;;;1.00;0.90;;;18.00;78.00;;;;;;4898156;29;20493;-74
2022/10/18 03:05:49;;;;;;;0.70;0.70;;;17.90;78.10;;;;;;4899845;29;20462;-73
2022/10/18 03:08:15;;;;;;;0.70;0.70;;;17.80;78.00;;;;;;4899648;29;20865;-73
2022/10/18 03:10:43;;;;;;;0.90;0.90;;;17.80;78.70;;;;;;4896759;29;20960;-75
2022/10/18 03:13:10;;;;;;;0.80;0.80;;;17.60;78.50;;;;;;4880885;29;20484;-73
2022/10/18 03:15:37;;;;;;;0.70;0.60;;;17.60;79.10;;;;;;4882310;29;20468;-73
2022/10/18 03:18:05;;;;;;;0.80;0.80;;;17.60;79.20;;;;;;4880800;29;20816;-74
2022/10/18 03:20:33;;;;;;;0.70;0.70;;;17.60;78.60;;;;;;4880342;29;20824;-73
2022/10/18 03:22:59;;;;;;;1.20;0.80;;;17.60;78.60;;;;;;4880607;29;20498;-74
2022/10/18 03:25:26;;;;;;;1.10;0.80;;;17.70;78.60;;;;;;4880316;29;20454;-74
2022/10/18 03:27:53;;;;;;;1.20;0.90;;;17.80;78.60;;;;;;4880823;29;20463;-74
2022/10/18 03:30:19;;;;;;;0.63;0.63;;;17.90;78.30;;;;;;4880572;29;20459;-74
2022/10/18 03:32:46;;;;;;;0.80;0.60;;;17.90;78.00;;;;;;4880435;29;20493;-75
2022/10/18 03:35:14;;;;;;;1.00;0.87;;;17.90;77.90;;;;;;4880415;29;20458;-73
2022/10/18 03:37:41;;;;;;;0.97;0.87;;;17.70;78.10;;;;;;4880405;29;20454;-74
2022/10/18 03:40:08;;;;;;;0.73;0.73;;;17.80;78.40;;;;;;4880363;29;20457;-75
2022/10/18 03:42:35;;;;;;;0.70;0.70;;;17.80;78.20;;;;;;4880232;29;20487;-73
2022/10/18 03:45:02;;;;;;;0.60;0.60;;;17.90;77.90;;;;;;4880284;29;20462;-74
2022/10/18 03:47:28;;;;;;;0.70;0.60;;;17.90;77.60;;;;;;4879933;29;20898;-75
2022/10/18 03:49:55;;;;;;;0.93;0.70;;;17.90;77.70;;;;;;4880200;29;20450;-75
2022/10/18 03:52:23;;;;;;;1.47;0.70;;;18.00;77.90;;;;;;4880111;29;20550;-74
2022/10/18 03:54:50;;;;;;;0.63;0.63;;;18.10;77.60;;;;;;4880120;29;20511;-75
2022/10/18 03:57:17;;;;;;;0.80;0.70;;;18.20;77.30;;;;;;4880106;29;20458;-74
2022/10/18 03:59:43;;;;;;;0.80;0.80;;;18.20;77.20;;;;;;4880076;29;20454;-74
2022/10/18 04:02:10;;;;;;;0.83;0.83;;;18.30;77.20;;;;;;4879892;29;20501;-74
2022/10/18 04:04:37;;;;;;;0.63;0.63;;;18.30;76.80;;;;;;4879693;29;20991;-75
2022/10/18 04:07:03;;;;;;;0.70;0.67;;;18.10;76.90;;;;;;4879962;29;20462;-74
2022/10/18 04:09:31;;;;;;;1.13;0.60;;;18.10;77.10;;;;;;4879530;29;20462;-75
2022/10/18 04:11:58;;;;;;;0.70;0.70;;;18.10;77.70;;;;;;4879451;29;20471;-74
2022/10/18 04:14:25;;;;;;;0.90;0.70;;;18.00;77.10;;;;;;4879873;29;20462;-75
2022/10/18 04:16:51;;;;;;;0.60;0.60;;;18.00;77.60;;;;;;4879856;29;20831;-75
2022/10/18 04:19:18;;;;;;;0.70;0.60;;;17.80;77.90;;;;;;4879482;29;20951;-74
2022/10/18 04:21:45;;;;;;;0.80;0.80;;;17.80;78.60;;;;;;4879618;29;20530;-74
2022/10/18 04:24:12;;;;;;;0.70;0.60;;;17.90;78.20;;;;;;4879729;29;20454;-74
2022/10/18 04:26:40;;;;;;;0.80;0.70;;;18.10;77.70;;;;;;4879420;29;20458;-74
2022/10/18 04:29:07;;;;;;;0.70;0.70;;;18.20;77.30;;;;;;4879679;29;20824;-74
2022/10/18 04:31:33;;;;;;;0.80;0.60;;;18.20;77.20;;;;;;4879616;29;20474;-74
2022/10/18 04:34:01;;;;;;;1.10;0.80;;;18.40;76.80;;;;;;4879614;29;20447;-75
2022/10/18 04:36:28;;;;;;;0.70;0.60;;;18.40;76.70;;;;;;4879642;29;20817;-74
2022/10/18 04:38:54;;;;;;;0.60;0.60;;;18.50;76.60;;;;;;4879623;29;20451;-74
2022/10/18 04:41:21;;;;;;;0.73;0.67;;;18.50;76.60;;;;;;4879767;29;20467;-74
2022/10/18 04:43:49;;;;;;;1.40;1.20;;;18.50;76.70;;;;;;4879477;29;20506;-74
2022/10/18 04:46:16;;;;;;;0.70;0.70;;;18.40;76.90;;;;;;4879576;29;20466;-75
2022/10/18 04:48:42;;;;;;;0.70;0.70;;;18.30;77.10;;;;;;4879529;29;20462;-74
2022/10/18 04:51:09;;;;;;;0.70;0.70;;;18.30;77.40;;;;;;4879174;29;20471;-74
2022/10/18 04:53:36;;;;;;;0.80;0.70;;;18.30;77.60;;;;;;4879516;29;20873;-73
2022/10/18 04:56:02;;;;;;;1.10;0.87;;;18.20;77.80;;;;;;4879579;29;20463;-75
2022/10/18 04:58:29;;;;;;;0.70;0.70;;;18.20;77.90;;;;;;4879478;29;20447;-75
2022/10/18 05:00:57;;;;;;;0.90;0.70;;;18.10;78.60;;;;;;4879078;29;21274;-74
2022/10/18 05:03:24;;;;;;;1.63;0.70;;;18.00;78.70;;;;;;4879393;29;20502;-75
2022/10/18 05:05:51;;;;;;;0.93;0.83;;;18.00;78.70;;;;;;4879424;29;20477;-74
2022/10/18 05:08:17;;;;;;;1.63;1.53;;;18.00;78.30;;;;;;4879356;29;20534;-73
2022/10/18 05:13:19;;;;;;;0.70;0.70;;;17.90;78.60;;;;;;5066825;22;20500;-74
2022/10/18 05:15:47;;;;;;;0.80;0.80;;;17.80;78.80;;;;;;4993308;28;20866;-74
2022/10/18 05:18:15;;;;;;;0.80;0.80;;;17.80;79.20;;;;;;4993594;28;20532;-73
2022/10/18 05:20:41;;;;;;;0.70;0.70;;;17.90;78.70;;;;;;4993242;28;20941;-74
2022/10/18 05:23:09;;;;;;;0.73;0.73;;;18.00;78.40;;;;;;4995552;28;20839;-74
2022/10/18 05:25:38;;;;;;;0.80;0.80;;;18.10;78.20;;;;;;4997268;28;20449;-74
2022/10/18 05:28:05;;;;;;;0.80;0.80;;;18.20;78.00;;;;;;4998734;28;20468;-74
2022/10/18 05:30:31;;;;;;;0.90;0.80;;;18.30;77.30;;;;;;4997134;28;20448;-76
2022/10/18 05:32:58;;;;;;;0.70;0.70;;;18.30;77.20;;;;;;4997101;28;20441;-74
2022/10/18 05:35:26;;;;;;;0.80;0.70;;;18.20;77.30;;;;;;4996753;28;20975;-75
2022/10/18 05:37:53;;;;;;;0.80;0.70;;;18.20;77.50;;;;;;4997066;28;20500;-74
2022/10/18 05:40:19;;;;;;;0.80;0.80;;;18.20;77.70;;;;;;4996939;28;20452;-75
2022/10/18 05:42:46;;;;;;;0.70;0.60;;;18.20;77.30;;;;;;4996466;28;20907;-75
2022/10/18 05:45:13;;;;;;;0.90;0.70;;;18.10;77.60;;;;;;4997010;28;20454;-75
2022/10/18 05:47:40;;;;;;;0.80;0.80;;;18.20;77.50;;;;;;4996895;28;20461;-75
2022/10/18 05:50:06;;;;;;;0.70;0.70;;;18.20;77.30;;;;;;4996891;28;20441;-73
2022/10/18 05:52:35;;;;;;;0.70;0.70;;;18.20;77.30;;;;;;4996453;28;20924;-75
2022/10/18 05:55:01;;;;;;;0.70;0.70;;;18.20;77.40;;;;;;4996775;28;20446;-75
2022/10/18 05:57:28;;;;;;;1.20;0.60;;;18.20;77.40;;;;;;4996478;28;20872;-76
2022/10/18 05:59:55;;;;;;;0.80;0.70;;;18.20;77.30;;;;;;4996692;28;20456;-76
2022/10/18 06:02:21;;;;;;;0.80;0.80;;;18.30;77.60;;;;;;4996443;28;20473;-75
2022/10/18 06:04:48;;;;;;;0.63;0.63;;;18.30;77.20;;;;;;4996773;28;20468;-76
2022/10/18 06:07:17;;;;;;;0.80;0.70;;;18.30;77.40;;;;;;4997472;28;20462;-75
2022/10/18 06:09:45;;;;;;;0.97;0.80;;;18.30;77.40;;;;;;4998093;28;20449;-75
2022/10/18 06:12:12;;;;;;;0.70;0.67;;;18.30;77.20;;;;;;4997048;28;20489;-75
2022/10/18 06:14:38;;;;;;;0.70;0.70;;;18.30;77.40;;;;;;4997593;28;20848;-74
2022/10/18 06:17:05;;;;;;;0.77;0.77;;;18.20;77.70;;;;;;4998404;28;20457;-75
2022/10/18 06:19:32;;;;;;;1.07;0.90;;;18.20;78.20;;;;;;4997345;28;20457;-75
2022/10/18 06:21:59;;;;;;;1.23;0.80;;;18.30;78.00;;;;;;4996933;28;20460;-76
2022/10/18 06:24:26;;;;;;;0.70;0.70;;;18.30;77.80;;;;;;4996992;28;21039;-75
2022/10/18 06:26:54;;;;;;;0.73;0.73;;;18.40;77.70;;;;;;4997036;28;20549;-75
2022/10/18 06:29:21;;;;;;;0.63;0.63;;;18.50;77.00;;;;;;4997214;28;20454;-75
2022/10/18 06:31:48;;;;;;;0.60;0.60;;;18.60;76.90;;;;;;4996665;28;20484;-75
2022/10/18 06:34:15;;;;;;;0.70;0.70;;;18.70;77.00;;;;;;4996533;28;20450;-75
2022/10/18 06:36:41;;;;;;;1.33;0.70;;;19.30;75.70;;;;;;4996916;28;20453;-75
2022/10/18 06:39:08;;;;;;;0.60;0.60;;;20.20;74.40;;;;;;4996861;28;20449;-76
2022/10/18 06:41:35;;;;;;;0.70;0.70;;;21.20;71.10;;;;;;4996264;28;20852;-75
2022/10/18 06:44:12;;;;;;;1.20;0.70;;;21.70;67.70;;;;;;4996498;28;20485;-75
2022/10/18 06:46:39;;;;;;;0.60;0.60;;;22.30;68.00;;;;;;4997383;28;20441;-76
2022/10/18 06:49:05;;;;;;;0.77;0.60;;;22.40;65.70;;;;;;4997186;28;20460;-76
2022/10/18 06:51:32;;;;;;;0.70;0.70;;;22.00;67.10;;;;;;4997260;28;20473;-76
2022/10/18 06:53:59;;;;;;;0.63;0.63;;;21.60;68.10;;;;;;4996912;28;20445;-76
2022/10/18 06:56:26;;;;;;;0.70;0.70;;;21.40;68.80;;;;;;4995855;28;20453;-75
2022/10/18 06:58:52;;;;;;;0.73;0.73;;;21.40;69.50;;;;;;4995700;28;20453;-75
2022/10/18 07:01:21;;;;;;;0.70;0.60;;;21.40;69.90;;;;;;4995555;28;20465;-75
2022/10/18 07:03:49;;;;;;;0.70;0.70;;;21.20;69.40;;;;;;4995412;28;20485;-75
2022/10/18 07:06:17;;;;;;;1.20;0.80;;;20.80;70.50;;;;;;4995490;28;20484;-75
2022/10/18 07:08:45;;;;;;;0.70;0.70;;;20.50;71.30;;;;;;4995469;28;20465;-75
2022/10/18 07:11:16;;;;;;;0.70;0.70;;;20.30;72.50;;;;;;4995084;28;20474;-75
2022/10/18 07:13:42;;;;;;;0.60;0.60;;;20.20;72.60;;;;;;4995104;28;20481;-75
2022/10/18 07:16:11;;;;;;;0.70;0.70;;;20.00;73.20;;;;;;4995311;28;20516;-75
2022/10/18 07:18:41;;;;;;;0.70;0.70;;;19.80;73.90;;;;;;4995190;28;20449;-75
2022/10/18 07:21:09;;;;;;;0.87;0.80;;;19.60;74.30;;;;;;4995331;28;20477;-75
2022/10/18 07:23:37;;;;;;;0.93;0.70;;;19.60;74.70;;;;;;4994977;28;20484;-75
2022/10/18 07:26:12;;;;;;;0.70;0.70;;;19.70;75.30;;;;;;4995429;28;20456;-75
2022/10/18 07:28:38;;;;;;;0.70;0.70;;;19.50;75.30;;;;;;4995042;28;20440;-75
2022/10/18 07:31:06;;;;;;;0.70;0.67;;;19.40;75.90;;;;;;4994929;28;20469;-75
2022/10/18 07:33:33;;;;;;;0.60;0.60;;;19.60;75.30;;;;;;4994942;28;20829;-75
2022/10/18 07:36:03;;;;;;;0.90;0.63;;;19.50;75.40;;;;;;4994900;28;20445;-75
2022/10/18 07:38:30;;;;;;;0.60;0.60;;;19.60;76.00;;;;;;4994906;28;20433;-75
2022/10/18 07:40:57;;;;;;;1.00;0.80;;;19.50;75.70;;;;;;4994745;28;20477;-75
2022/10/18 07:43:24;;;;;;;0.60;0.60;;;19.40;76.10;;;;;;4994790;28;20513;-75
2022/10/18 07:45:53;;;;;;;0.60;0.60;;;19.20;76.30;;;;;;4993969;28;20452;-75
2022/10/18 07:48:20;;;;;;;1.27;0.70;;;19.10;76.90;;;;;;4994483;28;20937;-75
2022/10/18 07:50:47;;;;;;;1.03;0.70;;;19.10;77.40;;;;;;4994536;28;20476;-75
2022/10/18 07:53:15;;;;;;;1.77;1.00;;;19.30;77.00;;;;;;4994611;28;20452;-76
2022/10/18 07:55:43;;;;;;;0.60;0.60;;;19.40;76.50;;;;;;4994214;28;20941;-75
2022/10/18 07:58:10;;;;;;;0.70;0.70;;;19.40;76.00;;;;;;4994481;28;20519;-75
2022/10/18 08:00:38;;;;;;;0.60;0.60;;;19.50;76.30;;;;;;4993978;28;20867;-75
2022/10/18 08:03:05;;;;;;;0.60;0.60;;;19.60;76.10;;;;;;4994310;28;20456;-75
2022/10/18 08:05:31;;;;;;;0.80;0.70;;;19.60;76.00;;;;;;4994048;28;20449;-75
2022/10/18 08:07:58;;;;;;;0.70;0.70;;;19.60;76.00;;;;;;4994347;28;20449;-75
2022/10/18 08:10:26;;;;;;;0.60;0.60;;;19.60;75.90;;;;;;4994161;28;20457;-75
2022/10/18 08:12:54;;;;;;;0.77;0.77;;;19.50;76.50;;;;;;4993998;28;20473;-75
2022/10/18 08:15:23;;;;;;;0.63;0.63;;;19.60;76.00;;;;;;4994232;28;20450;-75
2022/10/18 08:17:50;;;;;;;0.70;0.60;;;19.60;76.60;;;;;;4994161;28;20463;-76
2022/10/18 08:20:17;;;;;;;0.70;0.70;;;19.50;76.70;;;;;;4994200;28;20456;-75
2022/10/18 08:22:44;;;;;;;1.23;0.70;;;19.70;77.20;;;;;;4993740;28;21039;-75
2022/10/18 08:25:10;;;;;;;0.70;0.70;;;19.90;75.80;;;;;;4993993;28;20481;-75
2022/10/18 08:27:38;;;;;;;0.67;0.67;;;19.90;75.60;;;;;;4993759;28;20829;-75
2022/10/18 08:30:08;;;;;;;1.40;0.67;;;20.00;75.80;;;;;;4994067;28;20460;-76
2022/10/18 08:32:34;;;;;;;0.70;0.60;;;20.10;74.90;;;;;;4994327;28;20476;-75
2022/10/18 08:35:01;;;;;;;0.70;0.70;;;19.90;75.50;;;;;;4993757;28;20937;-75
2022/10/18 08:37:28;;;;;;;0.70;0.70;;;20.10;76.10;;;;;;4993985;28;20453;-75
2022/10/18 08:39:54;;;;;;;0.80;0.80;;;20.20;75.20;;;;;;4993963;28;20488;-75
2022/10/18 08:42:38;;;;;;;0.80;0.67;;;20.40;75.20;;;;;;4994012;28;20477;-74
2022/10/18 08:45:10;;;;;;;0.70;0.70;;;20.30;75.20;;;;;;4993885;28;20472;-75
2022/10/18 08:47:39;;;;;;;0.70;0.70;;;20.50;74.60;;;;;;4993961;28;20496;-74
2022/10/18 08:50:12;;;;;;;0.60;0.60;;;20.50;74.10;;;;;;4993866;28;20457;-75
2022/10/18 08:52:44;;;;;;;0.87;0.60;;;20.80;74.60;;;;;;4993773;28;20519;-75
2022/10/18 08:55:18;;;;;;;1.00;0.80;;;21.10;74.70;;;;;;4993657;28;20829;-75
2022/10/18 08:57:46;;;;;;;0.80;0.80;;;21.00;73.20;;;;;;4997384;28;20488;-75
2022/10/18 09:00:18;;;;;;;0.70;0.60;;;21.20;73.30;;;;;;4997853;28;20472;-76
2022/10/18 09:02:56;;;;;;;0.70;0.70;;;21.10;72.90;;;;;;4999632;28;20477;-76
2022/10/18 09:05:27;;;;;;;0.70;0.70;;;21.10;72.40;;;;;;4998270;28;20532;-75
2022/10/18 09:08:27;;;;;;;0.80;0.70;;;21.10;72.60;;;;;;4997745;28;20437;-75
2022/10/18 09:11:05;;;;;;;0.70;0.70;;;21.10;73.40;;;;;;4998010;28;20976;-75
2022/10/18 09:14:16;;;;;;;0.70;0.60;;;21.00;73.60;;;;;;4997759;28;20437;-75
2022/10/18 09:16:50;;;;;;;0.67;0.63;;;21.00;74.10;;;;;;4997428;28;20917;-76
2022/10/18 09:19:27;;;;;;;0.60;0.60;;;20.90;73.80;;;;;;4997783;28;20430;-75
2022/10/18 09:21:58;;;;;;;0.90;0.80;;;20.90;74.10;;;;;;4998215;28;20573;-75
2022/10/18 09:24:32;;;;;;;0.60;0.60;;;20.90;73.90;;;;;;4997266;28;20469;-75
2022/10/18 09:27:10;;;;;;;0.70;0.70;;;20.90;74.00;;;;;;4997571;28;20440;-75
2022/10/18 09:29:48;;;;;;;0.93;0.83;;;21.00;75.20;;;;;;4997249;28;20434;-75
2022/10/18 09:32:27;;;;;;;0.70;0.70;;;21.20;73.60;;;;;;4997196;28;20468;-75
2022/10/18 09:34:58;;;;;;;0.80;0.70;;;21.30;74.10;;;;;;4997220;28;20425;-74
2022/10/18 09:37:28;;;;;;;0.70;0.60;;;21.60;73.30;;;;;;4997155;28;20433;-75
2022/10/18 09:40:03;;;;;;;1.47;0.70;;;21.90;70.90;;;;;;4996823;28;20445;-75
2022/10/18 09:42:34;;;;;;;0.63;0.60;;;22.00;71.70;;;;;;4996978;28;20559;-75
2022/10/18 09:45:04;;;;;;;0.73;0.73;;;22.20;70.60;;;;;;4997231;28;20464;-75
2022/10/18 09:47:37;;;;;;;0.97;0.70;;;22.30;68.90;;;;;;4997643;28;20572;-75
2022/10/18 09:50:15;;;;;;;0.60;0.60;;;22.30;69.60;;;;;;4996915;28;20422;-76
2022/10/18 09:52:48;;;;;;;0.70;0.70;;;22.30;69.90;;;;;;4996502;28;20854;-75
2022/10/18 09:55:22;;;;;;;0.70;0.70;;;22.40;69.60;;;;;;4996882;28;20437;-74
2022/10/18 09:57:52;;;;;;;0.90;0.60;;;22.50;68.60;;;;;;4997013;28;20480;-75
2022/10/18 10:00:24;;;;;;;0.70;0.70;;;22.50;68.80;;;;;;4996911;28;20445;-75
2022/10/18 10:02:52;;;;;;;0.60;0.60;;;22.40;68.90;;;;;;4997924;28;20491;-75
2022/10/18 10:05:19;;;;;;;0.63;0.63;;;22.50;68.40;;;;;;4996528;28;20489;-75
2022/10/18 10:07:49;;;;;;;0.80;0.80;;;22.40;68.30;;;;;;4995681;28;20449;-76
2022/10/18 10:10:20;;;;;;;0.70;0.70;;;22.40;69.20;;;;;;4996487;28;20449;-75
2022/10/18 10:12:48;;;;;;;1.33;0.67;;;22.60;69.20;;;;;;4996200;28;20488;-75
2022/10/18 10:15:19;;;;;;;0.70;0.60;;;22.60;68.10;;;;;;4996454;28;20794;-75
2022/10/18 10:17:56;;;;;;;0.73;0.60;;;22.60;68.20;;;;;;4996876;28;20449;-75
2022/10/18 10:20:26;;;;;;;0.70;0.60;;;22.60;68.50;;;;;;4996465;28;20461;-75
2022/10/18 10:22:54;;;;;;;0.70;0.70;;;22.60;69.00;;;;;;4996278;28;20503;-75
2022/10/18 10:25:25;;;;;;;0.80;0.60;;;22.80;68.50;;;;;;4996132;28;20485;-76
2022/10/18 10:27:52;;;;;;;0.83;0.83;;;22.90;67.80;;;;;;4996173;28;20433;-75
2022/10/18 10:30:25;;;;;;;0.70;0.60;;;22.90;67.40;;;;;;4996148;28;20453;-75
2022/10/18 10:32:53;;;;;;;0.63;0.63;;;22.90;67.40;;;;;;4996092;28;20437;-75
2022/10/18 10:35:30;;;;;;;0.60;0.60;;;22.90;67.40;;;;;;4996018;28;20457;-75
2022/10/18 10:37:57;;;;;;;0.70;0.70;;;22.90;67.50;;;;;;4996192;28;20862;-75
2022/10/18 10:40:25;;;;;;;1.13;0.70;;;23.10;67.90;;;;;;4995854;28;20449;-76
2022/10/18 10:43:05;;;;;;;0.70;0.70;;;23.30;67.50;;;;;;4995573;28;20887;-75
2022/10/18 10:45:36;;;;;;;0.80;0.70;;;23.60;66.80;;;;;;4995851;28;20565;-75
2022/10/18 10:48:07;;;;;;;0.70;0.70;;;23.70;66.90;;;;;;4995857;28;20433;-75
2022/10/18 10:50:52;;;;;;;0.70;0.70;;;23.60;66.10;;;;;;4995731;28;20492;-76
2022/10/18 10:53:37;;;;;;;0.80;0.63;;;23.70;65.60;;;;;;4995695;28;20434;-75
2022/10/18 10:56:06;;;;;;;0.70;0.70;;;23.80;66.80;;;;;;4995654;28;20421;-75
2022/10/18 10:58:37;;;;;;;1.47;0.73;;;23.80;65.90;;;;;;4995929;28;20446;-76
2022/10/18 11:01:19;;;;;;;0.70;0.70;;;24.00;66.30;;;;;;4995665;28;20866;-76
2022/10/18 11:03:47;;;;;;;0.70;0.70;;;23.70;66.70;;;;;;4996337;28;20454;-76
2022/10/18 11:06:44;;;;;;;0.70;0.70;;;23.80;66.60;;;;;;4995340;28;20848;-76
2022/10/18 11:09:31;;;;;;;0.80;0.70;;;23.80;66.30;;;;;;4995868;28;20444;-76
2022/10/18 11:12:20;;;;;;;0.90;0.70;;;23.60;66.90;;;;;;4995910;28;20492;-76
2022/10/18 11:14:52;;;;;;;0.70;0.70;;;23.70;66.60;;;;;;4996696;28;20437;-76
2022/10/18 11:17:27;;;;;;;0.70;0.70;;;23.60;66.40;;;;;;4995750;28;20438;-76
2022/10/18 11:20:10;;;;;;;0.70;0.70;;;23.60;67.00;;;;;;4995641;28;20441;-76
2022/10/18 11:22:43;;;;;;;0.70;0.70;;;23.60;66.90;;;;;;4995368;28;20469;-76
2022/10/18 11:25:14;;;;;;;0.70;0.67;;;23.60;67.00;;;;;;4995107;28;20465;-76
2022/10/18 11:27:44;;;;;;;0.73;0.73;;;23.70;66.90;;;;;;4997537;28;20450;-76
2022/10/18 11:30:41;;;;;;;0.63;0.63;;;23.70;67.00;;;;;;4996339;28;20462;-76
2022/10/18 11:33:21;;;;;;;1.57;0.73;;;23.70;67.70;;;;;;4975338;28;20464;-76
2022/10/18 11:35:52;;;;;;;0.80;0.70;;;23.80;66.60;;;;;;4995346;28;20433;-75
2022/10/18 11:38:31;;;;;;;0.70;0.70;;;23.80;66.30;;;;;;4995082;28;20445;-76
2022/10/18 11:41:21;;;;;;;1.20;0.60;;;23.80;66.90;;;;;;4995329;28;20476;-76
2022/10/18 11:43:52;;;;;;;0.70;0.60;;;24.00;66.10;;;;;;4994772;28;20492;-76
2022/10/18 11:46:26;;;;;;;0.60;0.57;;;24.30;65.40;;;;;;4994722;28;20524;-75
2022/10/18 11:49:07;;;;;;;0.70;0.70;;;24.60;64.40;;;;;;4994665;28;20521;-75
2022/10/18 11:51:47;;;;;;;0.60;0.60;;;24.70;64.30;;;;;;4994280;28;20995;-76
2022/10/18 11:54:35;;;;;;;0.70;0.60;;;24.80;64.00;;;;;;4994682;28;20429;-75
2022/10/18 11:57:29;;;;;;;0.93;0.70;;;25.20;63.00;;;;;;4994769;28;20418;-75
2022/10/18 12:00:07;;;;;;;0.60;0.60;;;25.40;63.10;;;;;;4994830;28;20429;-75
2022/10/18 12:02:53;;;;;;;1.00;0.80;;;25.40;63.20;;;;;;4994468;28;20480;-74
2022/10/18 12:05:21;;;;;;;0.80;0.80;;;25.00;64.70;;;;;;4994365;28;20484;-75
2022/10/18 12:07:54;;;;;;;1.17;0.73;;;24.60;64.80;;;;;;4994465;28;20454;-75
2022/10/18 12:10:24;;;;;;;1.13;1.03;;;24.30;66.00;;;;;;4994368;28;20438;-75
2022/10/18 12:12:54;;;;;;;1.30;0.70;;;24.30;66.30;;;;;;4993944;28;20468;-74
2022/10/18 12:15:25;;;;;;;0.67;0.67;;;24.30;66.80;;;;;;4994454;28;20509;-75
2022/10/18 12:17:54;;;;;;;0.77;0.70;;;24.30;67.30;;;;;;4994650;28;20520;-76
2022/10/18 12:20:24;;;;;;;1.10;0.80;;;24.20;66.60;;;;;;4994294;28;20445;-75
2022/10/18 12:22:59;;;;;;;0.70;0.70;;;24.20;66.00;;;;;;4994404;28;20426;-76
2022/10/18 12:25:29;;;;;;;0.93;0.70;;;24.30;66.50;;;;;;4994184;28;20504;-75
2022/10/18 12:28:00;;;;;;;0.60;0.60;;;24.60;66.10;;;;;;4994094;28;20488;-75
2022/10/18 12:30:34;;;;;;;0.70;0.60;;;24.80;64.00;;;;;;4993807;28;20441;-75
2022/10/18 12:33:07;;;;;;;0.73;0.53;;;24.90;62.50;;;;;;4994136;28;20437;-75
2022/10/18 12:35:45;;;;;;;0.67;0.60;;;25.10;62.50;;;;;;4994194;28;20907;-76
2022/10/18 12:38:19;;;;;;;0.67;0.60;;;25.30;61.00;;;;;;4994894;28;20437;-75
2022/10/18 12:40:50;;;;;;;0.60;0.60;;;25.50;60.40;;;;;;4994053;28;20480;-75
2022/10/18 12:43:22;;;;;;;0.60;0.60;;;25.50;60.00;;;;;;4994867;28;20448;-76
2022/10/18 12:45:53;;;;;;;0.77;0.70;;;25.60;60.20;;;;;;4994015;28;20473;-75
2022/10/18 12:48:34;;;;;;;1.00;0.60;;;25.70;59.40;;;;;;4994135;28;20453;-76
2022/10/18 12:51:06;;;;;;;0.60;0.60;;;25.70;59.40;;;;;;4993518;28;20480;-75
2022/10/18 12:53:34;;;;;;;0.60;0.53;;;25.70;59.30;;;;;;4993804;28;20437;-76
2022/10/18 12:56:36;;;;;;;0.80;0.67;;;25.60;59.30;;;;;;4993642;28;21056;-76
2022/10/18 12:59:49;;;;;;;0.60;0.60;;;25.40;59.90;;;;;;4994431;28;20448;-76
2022/10/18 13:02:30;;;;;;;1.17;0.60;;;25.10;60.60;;;;;;4993684;28;20458;-76
2022/10/18 13:04:57;;;;;;;0.60;0.60;;;24.90;61.10;;;;;;4993837;28;20473;-77
2022/10/18 13:07:42;;;;;;;0.60;0.60;;;24.90;61.40;;;;;;4994331;28;20975;-77
2022/10/18 13:10:39;;;;;;;0.60;0.60;;;24.70;61.60;;;;;;4993740;28;20477;-76
2022/10/18 13:13:52;;;;;;;0.60;0.50;;;24.60;62.40;;;;;;4993582;28;20529;-76
2022/10/18 13:16:28;;;;;;;0.80;0.80;;;24.70;62.70;;;;;;4993821;28;20445;-76
2022/10/18 13:18:58;;;;;;;0.70;0.60;;;24.80;62.60;;;;;;4993795;28;20441;-76
2022/10/18 13:21:33;;;;;;;0.70;0.60;;;25.50;61.70;;;;;;4994466;28;20470;-77
2022/10/18 13:24:21;;;;;;;0.70;0.60;;;27.10;58.50;;;;;;4994366;28;20441;-77
2022/10/18 13:27:01;;;;;;;0.60;0.60;;;29.50;53.40;;;;;;4993337;28;20485;-77
2022/10/18 13:29:55;;;;;;;0.63;0.53;;;30.80;50.60;;;;;;4994058;28;20453;-76
2022/10/18 13:32:28;;;;;;;0.60;0.60;;;31.90;49.20;;;;;;4993930;28;20481;-77
2022/10/18 13:34:55;;;;;;;0.60;0.60;;;34.20;45.80;;;;;;4993464;28;20923;-75
2022/10/18 13:37:24;;;;;;;0.80;0.70;;;36.60;42.50;;;;;;4993461;28;20445;-76
2022/10/18 13:40:11;;;;;;;0.70;0.60;;;38.60;39.90;;;;;;4994169;28;20460;-76
2022/10/18 13:42:38;;;;;;;0.77;0.60;;;40.50;37.40;;;;;;4993136;28;20469;-74
2022/10/18 13:45:38;;;;;;;0.60;0.57;;;42.00;35.20;;;;;;4996682;28;21022;-76
2022/10/18 13:48:43;;;;;;;0.70;0.60;;;42.30;34.40;;;;;;4993311;28;20456;-76
2022/10/18 13:51:30;;;;;;;0.60;0.60;;;43.00;33.60;;;;;;4996901;28;20472;-76
2022/10/18 13:54:05;;;;;;;0.60;0.55;;;43.70;32.50;;;;;;4996710;28;20668;-75
2022/10/18 13:57:03;;;;;;;0.55;0.50;;;44.10;32.00;;;;;;4996922;28;20197;-76
2022/10/18 13:59:47;;;;;;;0.70;0.70;;;43.60;32.00;;;;;;4997405;28;20190;-77
2022/10/18 14:02:44;;;;;;;0.70;0.60;;;42.60;33.50;;;;;;4996854;28;20469;-77
2022/10/18 14:05:30;;;;;;;0.50;0.50;;;42.50;33.60;;;;;;4963873;28;20485;-76
2022/10/18 14:08:03;;;;;;;0.70;0.60;;;42.40;33.30;;;;;;4996904;28;20905;-76
2022/10/18 14:10:44;;;;;;;0.70;0.70;;;41.10;34.60;;;;;;4996832;28;20439;-76
2022/10/18 14:13:20;;;;;;;0.70;0.70;;;39.00;36.60;;;;;;4996935;28;20839;-76
2022/10/18 14:15:51;;;;;;;0.87;0.60;;;36.80;39.20;;;;;;4996882;28;20433;-77
2022/10/18 14:18:24;;;;;;;0.60;0.57;;;35.30;41.40;;;;;;4996774;28;20449;-76
2022/10/18 14:20:55;;;;;;;0.60;0.60;;;34.10;43.50;;;;;;4996764;28;20909;-74
2022/10/18 14:23:27;;;;;;;0.60;0.60;;;32.60;44.90;;;;;;4996466;28;20440;-75
2022/10/18 14:26:05;;;;;;;0.70;0.50;;;31.20;47.10;;;;;;4997223;28;20473;-75
2022/10/18 14:28:32;;;;;;;0.60;0.60;;;30.20;49.00;;;;;;4996930;28;20437;-75
2022/10/18 14:31:01;;;;;;;0.73;0.60;;;30.10;49.50;;;;;;4996803;28;20473;-76
2022/10/18 14:33:33;;;;;;;0.60;0.50;;;29.80;50.40;;;;;;4996708;28;20457;-76
2022/10/18 14:36:03;;;;;;;0.70;0.60;;;29.10;51.60;;;;;;4979385;28;20800;-75
2022/10/18 14:38:32;;;;;;;0.80;0.70;;;28.40;53.60;;;;;;4996380;28;20438;-75
2022/10/18 14:41:07;;;;;;;0.60;0.60;;;27.80;55.20;;;;;;4996426;28;20519;-76
2022/10/18 14:43:34;;;;;;;0.60;0.60;;;27.30;56.20;;;;;;4996220;28;20445;-75
2022/10/18 14:46:15;;;;;;;0.77;0.77;;;26.80;57.60;;;;;;4996234;28;20496;-75
2022/10/18 14:48:42;;;;;;;0.70;0.60;;;26.40;59.00;;;;;;4996449;28;20452;-76
2022/10/18 14:51:13;;;;;;;0.70;0.60;;;25.80;60.20;;;;;;4996279;28;20469;-76
2022/10/18 14:53:41;;;;;;;0.70;0.60;;;25.50;60.60;;;;;;4995878;28;20448;-76
2022/10/18 14:56:18;;;;;;;0.60;0.60;;;25.20;60.90;;;;;;4995839;28;20449;-76
2022/10/18 14:58:45;;;;;;;1.10;0.70;;;25.00;62.00;;;;;;4995686;28;20437;-76
2022/10/18 15:01:16;;;;;;;0.70;0.60;;;24.80;62.60;;;;;;4995444;28;20454;-75
2022/10/18 15:03:44;;;;;;;0.70;0.60;;;24.70;63.60;;;;;;4995651;28;20441;-76
2022/10/18 15:06:16;;;;;;;0.60;0.60;;;24.60;64.10;;;;;;4995303;28;21028;-76
2022/10/18 15:08:46;;;;;;;0.70;0.60;;;24.40;64.40;;;;;;4995237;28;20433;-75
2022/10/18 15:11:15;;;;;;;0.90;0.60;;;24.30;65.00;;;;;;4994978;28;20480;-75
2022/10/18 15:13:48;;;;;;;0.70;0.70;;;24.20;65.30;;;;;;4995445;28;20448;-75
2022/10/18 15:16:16;;;;;;;0.60;0.60;;;24.00;66.00;;;;;;4995193;28;20438;-75
2022/10/18 15:18:43;;;;;;;1.20;0.60;;;23.90;66.50;;;;;;4995518;28;20508;-75
2022/10/18 15:21:21;;;;;;;1.00;1.00;;;23.90;66.70;;;;;;4995267;28;20473;-75
2022/10/18 15:23:50;;;;;;;0.60;0.60;;;23.80;66.70;;;;;;4995269;28;20438;-75
2022/10/18 15:26:22;;;;;;;1.27;0.97;;;23.80;67.10;;;;;;4994699;28;20481;-75
2022/10/18 15:28:52;;;;;;;0.90;0.63;;;23.60;68.10;;;;;;4995100;28;20434;-76
2022/10/18 15:31:24;;;;;;;1.30;0.70;;;23.40;68.90;;;;;;4995114;28;20560;-75
2022/10/18 15:33:52;;;;;;;0.70;0.70;;;23.20;69.60;;;;;;4995059;28;20492;-75
2022/10/18 15:36:26;;;;;;;0.60;0.60;;;23.10;70.30;;;;;;4994919;28;20445;-75
2022/10/18 15:38:54;;;;;;;0.60;0.60;;;23.00;70.70;;;;;;4994953;28;20442;-76
2022/10/18 15:41:37;;;;;;;0.70;0.60;;;22.80;71.10;;;;;;4994967;28;20465;-75
2022/10/18 15:44:17;;;;;;;0.70;0.60;;;22.70;71.70;;;;;;4994871;28;20484;-76
2022/10/18 15:46:46;;;;;;;0.80;0.80;;;22.60;72.30;;;;;;4994400;28;20969;-76
2022/10/18 15:49:49;;;;;;;1.23;0.60;;;22.50;72.80;;;;;;4994724;28;20464;-76
2022/10/18 15:52:38;;;;;;;0.60;0.60;;;22.40;73.50;;;;;;4994540;28;21004;-76
2022/10/18 15:55:46;;;;;;;0.97;0.70;;;22.10;74.30;;;;;;4989119;28;20485;-76
2022/10/18 15:58:19;;;;;;;0.70;0.60;;;22.00;74.70;;;;;;4994761;28;20480;-76
2022/10/18 16:00:47;;;;;;;0.60;0.57;;;22.00;74.90;;;;;;4994553;28;20982;-76
2022/10/18 16:03:14;;;;;;;0.80;0.70;;;22.00;74.90;;;;;;4994560;28;20500;-76
2022/10/18 16:05:41;;;;;;;0.70;0.60;;;22.00;75.00;;;;;;4993969;28;20449;-75
2022/10/18 16:08:19;;;;;;;0.90;0.70;;;22.00;75.00;;;;;;4994418;28;20453;-76
2022/10/18 16:10:47;;;;;;;0.80;0.60;;;22.00;75.20;;;;;;4993967;28;20469;-75
2022/10/18 16:13:14;;;;;;;0.80;0.70;;;22.00;75.10;;;;;;4993913;28;20460;-75
2022/10/18 16:15:40;;;;;;;0.70;0.60;;;22.00;75.10;;;;;;4994271;28;20446;-75